Time;durP1;ratioP1;P1;durP2;ratioP2;P2;SDS_P1;SDS_P2;PMS_P1;PMS_P2;Temp;Humidity;BMP_temperature;BMP_pressure;BME280_temperature;BME280_humidity;BME280_pressure;Samples;Min_cycle;Max_cycle;Signal;HPM_P1;HPM_P2
2022/07/05 00:00:57;;;;;;;4.90;2.73;;;14.50;99.90;;;;;;5074028;28;20940;-68
2022/07/05 00:03:22;;;;;;;2.30;2.10;;;14.50;99.90;;;;;;5084396;28;20500;-73
2022/07/05 00:05:48;;;;;;;2.80;2.60;;;14.50;99.90;;;;;;5094913;28;20851;-72
2022/07/05 00:08:14;;;;;;;2.30;2.10;;;14.50;99.90;;;;;;5083471;28;20182;-72
2022/07/05 00:10:40;;;;;;;2.43;2.23;;;14.40;99.90;;;;;;5074025;28;20162;-69
2022/07/05 00:13:06;;;;;;;2.53;2.33;;;14.50;99.90;;;;;;5091837;28;20186;-68
2022/07/05 00:15:32;;;;;;;2.80;2.20;;;14.60;99.90;;;;;;5093708;28;20187;-67
2022/07/05 00:17:58;;;;;;;5.93;2.73;;;14.60;99.90;;;;;;5092938;28;20423;-72
2022/07/05 00:20:24;;;;;;;3.40;2.80;;;14.60;99.90;;;;;;5094662;28;20173;-70
2022/07/05 00:22:50;;;;;;;4.80;3.17;;;14.60;99.90;;;;;;5087849;28;20213;-72
2022/07/05 00:25:15;;;;;;;3.17;2.70;;;14.60;99.90;;;;;;5074182;28;20778;-71
2022/07/05 00:27:41;;;;;;;7.10;2.10;;;14.60;99.90;;;;;;5074322;28;20174;-71
2022/07/05 00:30:08;;;;;;;2.80;2.60;;;14.60;99.90;;;;;;5074006;28;20240;-67
2022/07/05 00:32:33;;;;;;;8.97;3.23;;;14.60;99.90;;;;;;5086531;28;20177;-67
2022/07/05 00:34:59;;;;;;;3.13;2.63;;;14.50;99.90;;;;;;5094363;28;20434;-72
2022/07/05 00:37:25;;;;;;;3.10;2.83;;;14.50;99.90;;;;;;5081701;28;20800;-71
2022/07/05 00:39:51;;;;;;;5.13;2.80;;;14.50;99.90;;;;;;5073580;28;20171;-67
2022/07/05 00:42:17;;;;;;;10.23;2.90;;;14.40;99.90;;;;;;5082653;28;20422;-71
2022/07/05 00:44:43;;;;;;;3.93;2.60;;;14.40;99.90;;;;;;5090371;28;20606;-72
2022/07/05 00:47:10;;;;;;;2.70;2.50;;;14.40;99.90;;;;;;5085296;28;20269;-68
2022/07/05 00:49:37;;;;;;;4.90;2.90;;;14.30;99.90;;;;;;5094059;28;20188;-69
2022/07/05 00:52:05;;;;;;;5.10;2.93;;;14.20;99.90;;;;;;5079017;28;20458;-68
2022/07/05 00:54:34;;;;;;;3.20;2.40;;;14.20;99.90;;;;;;5072209;28;20424;-71
2022/07/05 00:57:00;;;;;;;9.50;3.50;;;14.10;99.90;;;;;;5086678;28;20411;-72
2022/07/05 00:59:27;;;;;;;4.17;2.93;;;14.20;99.90;;;;;;5093874;28;20382;-72
2022/07/05 01:01:53;;;;;;;5.90;2.83;;;14.20;99.90;;;;;;5082923;28;20235;-72
2022/07/05 01:04:19;;;;;;;4.70;3.03;;;14.20;99.90;;;;;;5071433;28;20930;-72
2022/07/05 01:06:47;;;;;;;2.90;2.70;;;14.30;99.90;;;;;;5083338;28;20209;-68
2022/07/05 01:09:15;;;;;;;5.63;2.67;;;14.20;99.90;;;;;;5093790;28;20157;-67
2022/07/05 01:11:45;;;;;;;8.57;2.73;;;14.20;99.90;;;;;;5073855;28;20423;-70
2022/07/05 01:14:13;;;;;;;4.10;3.10;;;14.10;99.90;;;;;;5071738;28;20387;-71
2022/07/05 01:16:39;;;;;;;3.23;2.93;;;14.20;99.90;;;;;;5090047;28;20423;-72
2022/07/05 01:19:09;;;;;;;4.47;2.93;;;14.20;99.90;;;;;;5084391;28;20458;-68
2022/07/05 01:21:40;;;;;;;3.07;2.63;;;14.30;99.90;;;;;;5075522;28;20632;-72
2022/07/05 01:24:08;;;;;;;3.43;2.50;;;14.30;99.90;;;;;;5072292;28;20432;-72
2022/07/05 01:26:34;;;;;;;6.00;3.17;;;14.30;99.90;;;;;;5089564;28;20386;-67
2022/07/05 01:28:59;;;;;;;5.50;3.17;;;14.20;99.90;;;;;;5093051;28;20415;-73
2022/07/05 01:31:25;;;;;;;3.10;2.90;;;14.20;99.90;;;;;;5078363;28;20918;-68
2022/07/05 01:33:51;;;;;;;5.27;3.10;;;14.10;99.90;;;;;;5071162;28;20331;-67
2022/07/05 01:36:17;;;;;;;3.83;3.40;;;14.10;99.90;;;;;;5074955;28;20186;-68
2022/07/05 01:38:43;;;;;;;3.67;3.37;;;14.10;99.90;;;;;;5085053;28;20753;-67
2022/07/05 01:41:09;;;;;;;6.97;3.20;;;14.10;99.90;;;;;;5080228;28;20503;-72
2022/07/05 01:43:35;;;;;;;3.00;2.73;;;14.10;99.90;;;;;;5072173;28;20507;-72
2022/07/05 01:46:04;;;;;;;7.50;3.43;;;14.20;99.90;;;;;;5081770;28;20538;-68
2022/07/05 01:48:32;;;;;;;4.23;2.90;;;14.20;99.90;;;;;;5093115;28;20212;-72
2022/07/05 01:51:15;;;;;;;3.93;2.73;;;14.10;99.90;;;;;;5086107;28;20482;-72
2022/07/05 01:53:44;;;;;;;3.40;3.10;;;14.00;99.90;;;;;;5090135;28;20537;-67
2022/07/05 01:56:10;;;;;;;6.83;3.70;;;14.00;99.90;;;;;;5081890;28;20410;-66
2022/07/05 01:58:35;;;;;;;13.10;3.87;;;13.90;99.90;;;;;;5072886;28;20401;-75
2022/07/05 02:01:01;;;;;;;6.40;3.10;;;13.90;99.90;;;;;;5085487;28;20177;-72
2022/07/05 02:03:27;;;;;;;4.27;3.87;;;13.80;99.90;;;;;;5091986;28;20517;-67
2022/07/05 02:05:53;;;;;;;4.60;3.40;;;13.90;99.90;;;;;;5081551;28;20231;-67
2022/07/05 02:08:20;;;;;;;4.20;3.43;;;13.80;99.90;;;;;;5074833;28;20186;-68
2022/07/05 02:10:45;;;;;;;4.27;3.87;;;13.80;99.90;;;;;;5081013;28;20879;-72
2022/07/05 02:13:12;;;;;;;5.40;3.67;;;13.80;99.90;;;;;;5091898;28;20428;-72
2022/07/05 02:15:40;;;;;;;4.03;3.37;;;13.80;99.90;;;;;;5081050;28;20197;-73
2022/07/05 02:18:07;;;;;;;4.37;3.67;;;13.80;99.90;;;;;;5072726;28;20404;-72
2022/07/05 02:20:33;;;;;;;3.70;3.20;;;13.80;99.90;;;;;;5082627;28;20401;-72
2022/07/05 02:23:00;;;;;;;6.47;3.50;;;13.80;99.90;;;;;;5090601;28;21166;-67
2022/07/05 02:25:26;;;;;;;4.27;3.87;;;13.80;99.90;;;;;;5085697;28;20464;-67
2022/07/05 02:27:55;;;;;;;4.20;3.90;;;13.80;99.90;;;;;;5079333;28;20400;-67
2022/07/05 02:30:21;;;;;;;9.13;3.67;;;13.80;99.90;;;;;;5072589;28;20417;-68
2022/07/05 02:32:47;;;;;;;7.80;3.57;;;13.80;99.90;;;;;;5087242;28;20424;-72
2022/07/05 02:35:13;;;;;;;4.33;3.93;;;13.80;99.90;;;;;;5092661;28;20193;-72
2022/07/05 02:37:39;;;;;;;4.00;3.37;;;13.80;99.90;;;;;;5078531;28;20190;-68
2022/07/05 02:40:10;;;;;;;4.63;3.70;;;13.80;99.90;;;;;;5072451;28;20407;-72
2022/07/05 02:42:36;;;;;;;4.43;4.03;;;13.80;99.90;;;;;;5089470;28;20455;-68
2022/07/05 02:45:03;;;;;;;6.03;4.33;;;13.80;99.90;;;;;;5095829;28;20758;-68
2022/07/05 02:47:33;;;;;;;3.97;3.57;;;13.80;99.90;;;;;;5084625;28;20420;-72
2022/07/05 02:50:03;;;;;;;3.03;2.83;;;13.80;99.90;;;;;;5078321;28;20466;-68
2022/07/05 02:52:29;;;;;;;3.97;3.40;;;13.80;99.90;;;;;;5095245;28;20438;-71
2022/07/05 02:54:55;;;;;;;3.97;3.63;;;13.80;99.90;;;;;;5094752;28;20401;-72
2022/07/05 02:57:20;;;;;;;4.07;3.33;;;13.80;99.90;;;;;;5077527;28;20182;-72
2022/07/05 02:59:46;;;;;;;4.20;3.40;;;13.80;99.90;;;;;;5075967;28;20253;-72
2022/07/05 03:02:12;;;;;;;6.03;3.20;;;13.80;99.90;;;;;;5094429;28;20197;-71
2022/07/05 03:04:38;;;;;;;5.80;3.53;;;13.80;99.90;;;;;;5092475;28;20196;-72
2022/07/05 03:07:04;;;;;;;4.20;3.80;;;13.80;99.90;;;;;;5075898;28;20262;-69
2022/07/05 03:09:29;;;;;;;4.87;3.00;;;13.80;99.90;;;;;;5076186;28;20424;-72
2022/07/05 03:11:55;;;;;;;6.80;4.03;;;13.90;99.90;;;;;;5095820;28;20166;-69
2022/07/05 03:14:21;;;;;;;5.37;3.40;;;13.90;99.90;;;;;;5088828;28;20202;-72
2022/07/05 03:16:47;;;;;;;5.90;3.30;;;13.90;99.90;;;;;;5094326;28;20256;-72
2022/07/05 03:19:13;;;;;;;3.70;3.00;;;13.90;99.90;;;;;;5095842;28;20246;-72
2022/07/05 03:21:38;;;;;;;3.63;3.30;;;13.90;99.90;;;;;;5077918;28;20462;-72
2022/07/05 03:24:04;;;;;;;4.43;3.17;;;13.90;99.90;;;;;;5072801;28;20301;-72
2022/07/05 03:26:30;;;;;;;7.50;3.33;;;13.90;99.90;;;;;;5093088;28;20631;-71
2022/07/05 03:28:56;;;;;;;3.60;3.30;;;13.90;99.90;;;;;;5095684;28;20224;-68
2022/07/05 03:31:22;;;;;;;3.03;2.83;;;13.90;99.90;;;;;;5079468;28;20178;-75
2022/07/05 03:33:48;;;;;;;6.57;3.47;;;13.80;99.90;;;;;;5074232;28;20854;-72
2022/07/05 03:36:13;;;;;;;4.43;3.00;;;13.80;99.90;;;;;;5091014;28;20207;-68
2022/07/05 03:38:39;;;;;;;3.20;2.90;;;13.70;99.90;;;;;;5095474;28;20209;-68
2022/07/05 03:41:05;;;;;;;4.00;3.60;;;13.70;99.90;;;;;;5080309;28;20217;-71
2022/07/05 03:43:30;;;;;;;3.60;3.00;;;13.70;99.90;;;;;;5073776;28;20201;-72
2022/07/05 03:45:56;;;;;;;4.20;3.37;;;13.70;99.90;;;;;;5087247;28;20219;-72
2022/07/05 03:48:22;;;;;;;5.40;2.90;;;13.70;99.90;;;;;;5083804;28;20202;-72
2022/07/05 03:50:48;;;;;;;3.27;3.07;;;13.70;99.90;;;;;;5085347;28;20176;-68
2022/07/05 03:53:14;;;;;;;3.13;2.93;;;13.60;99.90;;;;;;5093710;28;20577;-67
2022/07/05 03:55:40;;;;;;;7.43;2.80;;;13.60;99.90;;;;;;5085981;28;20420;-67
2022/07/05 03:58:06;;;;;;;4.70;2.90;;;13.60;99.90;;;;;;5074907;28;20450;-72
2022/07/05 04:00:32;;;;;;;5.20;3.40;;;13.50;99.90;;;;;;5081868;28;20184;-68
2022/07/05 04:02:57;;;;;;;7.83;3.83;;;13.50;99.90;;;;;;5093147;28;20601;-68
2022/07/05 04:05:23;;;;;;;3.80;3.40;;;13.50;99.90;;;;;;5084538;28;20512;-73
2022/07/05 04:07:54;;;;;;;3.40;3.10;;;13.50;99.90;;;;;;5094926;28;20181;-67
2022/07/05 04:10:21;;;;;;;3.77;3.03;;;13.50;99.90;;;;;;5090247;28;20662;-68
2022/07/05 04:12:47;;;;;;;3.53;3.27;;;13.50;99.90;;;;;;5073801;28;20401;-68
2022/07/05 04:15:13;;;;;;;5.33;4.20;;;13.60;99.90;;;;;;5077086;28;20530;-68
2022/07/05 04:17:53;;;;;;;3.10;2.80;;;13.60;99.90;;;;;;5093508;28;20429;-68
2022/07/05 04:20:21;;;;;;;7.80;3.80;;;13.70;99.90;;;;;;5088096;28;20420;-68
2022/07/05 04:22:47;;;;;;;4.40;3.77;;;13.80;99.90;;;;;;5073215;28;20452;-72
2022/07/05 04:25:16;;;;;;;5.40;2.87;;;13.80;99.90;;;;;;5080516;28;20435;-71
2022/07/05 04:27:49;;;;;;;3.70;3.40;;;13.80;99.90;;;;;;5094716;28;20402;-68
2022/07/05 04:30:16;;;;;;;6.03;3.50;;;13.80;99.90;;;;;;5087887;28;20393;-72
2022/07/05 04:32:43;;;;;;;3.27;3.00;;;13.90;99.90;;;;;;5073260;28;20401;-72
2022/07/05 04:35:09;;;;;;;3.30;3.00;;;13.90;99.90;;;;;;5090895;28;20825;-67
2022/07/05 04:37:35;;;;;;;4.37;3.63;;;13.90;99.90;;;;;;5089918;28;20960;-68
2022/07/05 04:40:03;;;;;;;22.20;3.53;;;13.90;99.90;;;;;;5089616;28;20450;-72
2022/07/05 04:42:28;;;;;;;5.10;3.30;;;14.00;99.90;;;;;;5093166;28;20451;-68
2022/07/05 04:44:54;;;;;;;7.93;2.77;;;14.10;99.90;;;;;;5078706;28;20442;-67
2022/07/05 04:47:19;;;;;;;3.73;2.70;;;14.10;99.90;;;;;;5073828;28;20528;-68
2022/07/05 04:49:45;;;;;;;4.70;3.17;;;14.20;99.90;;;;;;5073925;28;20529;-71
2022/07/05 04:52:11;;;;;;;8.47;3.43;;;14.20;99.90;;;;;;5072954;28;20193;-72
2022/07/05 04:54:37;;;;;;;13.10;2.73;;;14.20;99.90;;;;;;5079077;28;20556;-75
2022/07/05 04:57:03;;;;;;;6.80;2.87;;;14.30;99.90;;;;;;5073026;28;20174;-75
2022/07/05 04:59:29;;;;;;;3.17;2.87;;;14.40;99.90;;;;;;5084739;28;20442;-74
2022/07/05 05:01:54;;;;;;;3.40;3.10;;;14.30;99.90;;;;;;5093624;28;20761;-71
2022/07/05 05:04:20;;;;;;;3.73;3.00;;;14.40;99.90;;;;;;5079866;28;20419;-72
2022/07/05 05:06:46;;;;;;;4.30;2.80;;;14.40;99.90;;;;;;5085512;28;20189;-66
2022/07/05 05:09:11;;;;;;;2.50;2.30;;;14.30;99.90;;;;;;5079326;28;20177;-67
2022/07/05 05:11:37;;;;;;;3.93;3.00;;;14.40;99.90;;;;;;5091801;28;20639;-67
2022/07/05 05:14:03;;;;;;;6.00;2.87;;;14.60;99.90;;;;;;5083326;28;20209;-66
2022/07/05 05:16:28;;;;;;;5.20;2.50;;;14.80;99.90;;;;;;5073430;28;20174;-66
2022/07/05 05:18:55;;;;;;;2.97;2.60;;;14.90;99.90;;;;;;5079393;28;20188;-67
2022/07/05 05:21:21;;;;;;;2.20;2.10;;;15.00;99.90;;;;;;5093533;28;20196;-67
2022/07/05 05:23:47;;;;;;;4.37;3.17;;;15.10;99.90;;;;;;5074033;28;20476;-71
2022/07/05 05:26:12;;;;;;;5.53;3.17;;;15.20;99.90;;;;;;5073073;28;20166;-71
2022/07/05 05:28:38;;;;;;;2.33;2.13;;;15.20;99.90;;;;;;5088618;28;20169;-67
2022/07/05 05:31:05;;;;;;;4.57;2.33;;;15.20;99.90;;;;;;5093442;28;20252;-68
2022/07/05 05:33:30;;;;;;;4.33;2.30;;;15.30;99.90;;;;;;5078136;28;20452;-72
2022/07/05 05:35:56;;;;;;;3.90;2.60;;;15.30;99.90;;;;;;5090943;28;20458;-73
2022/07/05 05:38:22;;;;;;;7.13;2.87;;;15.30;99.90;;;;;;5079744;28;20287;-68
2022/07/05 05:40:47;;;;;;;12.13;2.60;;;15.40;99.90;;;;;;5084378;28;20188;-67
2022/07/05 05:43:13;;;;;;;3.30;2.57;;;15.40;99.90;;;;;;5080339;28;20733;-73
2022/07/05 05:45:39;;;;;;;2.13;2.00;;;15.40;99.90;;;;;;5073113;28;20170;-73
2022/07/05 05:48:05;;;;;;;4.00;2.00;;;15.50;99.90;;;;;;5085043;28;20185;-74
2022/07/05 05:50:37;;;;;;;2.67;2.47;;;15.50;99.90;;;;;;5093044;28;20252;-74
2022/07/05 05:53:03;;;;;;;3.47;1.97;;;15.50;99.90;;;;;;5080146;28;21011;-70
2022/07/05 05:55:30;;;;;;;4.13;2.37;;;15.60;99.90;;;;;;5071845;28;20390;-72
2022/07/05 05:57:57;;;;;;;2.70;2.17;;;15.60;99.90;;;;;;5084502;28;20411;-70
2022/07/05 06:00:23;;;;;;;5.57;1.80;;;15.70;99.90;;;;;;5093214;28;20399;-73
2022/07/05 06:02:50;;;;;;;3.70;1.90;;;15.90;99.90;;;;;;5092058;28;20462;-69
2022/07/05 06:05:16;;;;;;;4.40;1.80;;;16.00;99.90;;;;;;5092745;28;20423;-73
2022/07/05 06:07:51;;;;;;;3.90;1.83;;;16.00;99.90;;;;;;5092797;28;20390;-70
2022/07/05 06:10:19;;;;;;;1.87;1.60;;;16.00;99.90;;;;;;5092958;28;20422;-74
2022/07/05 06:12:44;;;;;;;2.30;2.10;;;16.00;99.90;;;;;;5089573;28;20432;-73
2022/07/05 06:15:10;;;;;;;2.50;1.90;;;16.20;99.90;;;;;;5091076;28;20455;-73
2022/07/05 06:17:39;;;;;;;2.03;1.93;;;16.30;99.90;;;;;;5096834;28;20283;-69
2022/07/05 06:20:09;;;;;;;1.93;1.63;;;16.40;99.90;;;;;;5096861;28;20169;-74
2022/07/05 06:22:35;;;;;;;3.50;2.13;;;16.40;99.90;;;;;;5095921;28;20805;-69
2022/07/05 06:25:01;;;;;;;4.87;2.10;;;16.40;99.90;;;;;;5096966;28;20412;-70
2022/07/05 06:27:27;;;;;;;2.37;1.80;;;16.50;99.90;;;;;;5095702;28;20939;-69
2022/07/05 06:29:52;;;;;;;1.97;1.30;;;16.50;99.90;;;;;;5095550;28;20419;-69
2022/07/05 06:32:18;;;;;;;6.47;1.87;;;16.50;99.90;;;;;;5095754;28;20170;-72
2022/07/05 06:34:44;;;;;;;3.30;1.77;;;16.60;99.90;;;;;;5095841;28;20201;-72
2022/07/05 06:37:09;;;;;;;1.53;1.43;;;16.80;99.90;;;;;;5096453;28;20165;-69
2022/07/05 06:39:36;;;;;;;2.13;1.83;;;17.00;99.90;;;;;;5096724;28;20173;-69
2022/07/05 06:42:02;;;;;;;3.73;1.40;;;17.10;99.90;;;;;;5096235;28;20166;-69
2022/07/05 06:44:28;;;;;;;1.30;1.20;;;17.20;99.90;;;;;;5087025;28;20531;-73
2022/07/05 06:46:54;;;;;;;4.80;1.73;;;17.30;99.90;;;;;;5076351;28;20968;-73
2022/07/05 06:49:19;;;;;;;6.93;1.90;;;17.40;99.90;;;;;;5075167;28;20174;-73
2022/07/05 06:51:45;;;;;;;3.57;1.23;;;17.50;99.90;;;;;;5075284;28;20182;-70
2022/07/05 06:54:12;;;;;;;1.77;1.47;;;17.70;99.90;;;;;;5074775;28;20214;-73
2022/07/05 06:56:37;;;;;;;3.30;1.53;;;17.70;99.90;;;;;;5075974;28;20655;-73
2022/07/05 06:59:03;;;;;;;3.77;1.40;;;17.60;99.90;;;;;;5074569;28;20419;-73
2022/07/05 07:01:29;;;;;;;7.87;2.20;;;17.70;99.90;;;;;;5079241;28;20220;-73
2022/07/05 07:03:54;;;;;;;3.00;1.40;;;17.50;99.90;;;;;;5078031;28;20236;-68
2022/07/05 07:06:20;;;;;;;2.63;1.40;;;17.50;99.90;;;;;;5096037;28;20170;-73
2022/07/05 07:11:31;;;;;;;3.57;1.70;;;17.60;99.90;;;;;;5095591;28;20892;-68
2022/07/05 07:13:57;;;;;;;1.83;1.00;;;17.60;99.90;;;;;;5094691;28;20801;-73
2022/07/05 07:16:23;;;;;;;3.20;1.33;;;17.50;99.90;;;;;;5095980;28;20452;-71
2022/07/05 07:18:49;;;;;;;3.00;1.60;;;17.50;99.90;;;;;;5094574;28;20840;-68
2022/07/05 07:21:14;;;;;;;1.23;1.13;;;17.40;99.90;;;;;;5095852;28;20184;-73
2022/07/05 07:23:40;;;;;;;2.50;1.30;;;17.50;99.90;;;;;;5094935;28;20671;-68
2022/07/05 07:26:06;;;;;;;10.17;1.43;;;17.70;99.90;;;;;;5095006;28;20249;-69
2022/07/05 07:28:31;;;;;;;2.67;1.33;;;17.70;99.90;;;;;;5095507;28;20157;-72
2022/07/05 07:30:57;;;;;;;1.60;1.30;;;17.80;99.90;;;;;;5094696;28;20624;-69
2022/07/05 07:33:23;;;;;;;2.57;1.30;;;17.90;99.90;;;;;;5093317;28;20204;-69
2022/07/05 07:35:48;;;;;;;1.67;1.33;;;18.00;99.90;;;;;;5094359;28;20177;-72
2022/07/05 07:38:14;;;;;;;3.70;1.20;;;18.20;99.90;;;;;;5095626;28;20174;-72
2022/07/05 07:40:40;;;;;;;4.33;1.40;;;18.30;99.90;;;;;;5095336;28;20170;-73
2022/07/05 07:43:05;;;;;;;1.60;1.33;;;18.50;99.90;;;;;;5094319;28;20197;-73
2022/07/05 07:45:31;;;;;;;1.23;1.10;;;18.60;99.90;;;;;;5095505;28;20257;-73
2022/07/05 07:47:57;;;;;;;1.93;1.20;;;18.60;99.90;;;;;;5095171;28;20612;-69
2022/07/05 07:50:23;;;;;;;2.70;0.97;;;18.40;99.90;;;;;;5090044;28;20770;-69
2022/07/05 07:52:48;;;;;;;1.20;1.10;;;18.30;99.90;;;;;;5089177;28;20197;-73
2022/07/05 07:55:15;;;;;;;1.70;1.23;;;18.20;99.90;;;;;;5095021;28;20193;-73
2022/07/05 07:57:41;;;;;;;1.30;1.20;;;18.10;99.90;;;;;;5095087;28;20192;-72
2022/07/05 08:00:07;;;;;;;1.90;0.90;;;18.10;99.90;;;;;;5095114;28;20427;-74
2022/07/05 08:02:33;;;;;;;1.83;1.23;;;18.10;99.90;;;;;;5094053;28;20201;-72
2022/07/05 08:04:59;;;;;;;2.77;1.40;;;18.10;99.90;;;;;;5094748;28;20427;-68
2022/07/05 08:07:25;;;;;;;4.80;1.90;;;18.20;99.90;;;;;;5093848;28;20249;-74
2022/07/05 08:09:52;;;;;;;1.60;1.47;;;18.20;99.90;;;;;;5094049;28;20187;-69
2022/07/05 08:12:18;;;;;;;1.23;1.00;;;18.30;99.90;;;;;;5092727;28;20269;-68
2022/07/05 08:14:44;;;;;;;1.60;1.33;;;18.30;99.90;;;;;;5094683;28;20442;-74
2022/07/05 08:17:10;;;;;;;3.77;1.00;;;18.30;99.90;;;;;;5094603;28;20407;-69
2022/07/05 08:22:21;;;;;;;4.70;1.70;;;18.30;99.90;;;;;;5073839;28;20324;-73
2022/07/05 08:24:46;;;;;;;2.13;1.10;;;18.50;99.90;;;;;;5083931;28;20455;-67
2022/07/05 08:27:12;;;;;;;5.37;1.20;;;18.60;99.90;;;;;;5073233;28;20400;-73
2022/07/05 08:29:38;;;;;;;2.60;1.60;;;18.80;98.40;;;;;;5078796;28;20248;-72
2022/07/05 08:32:05;;;;;;;3.00;0.97;;;19.00;99.90;;;;;;5094183;28;20252;-73
2022/07/05 08:34:30;;;;;;;1.50;0.80;;;19.10;95.40;;;;;;5089417;28;20723;-73
2022/07/05 08:36:56;;;;;;;2.80;1.00;;;19.20;95.40;;;;;;5093033;28;20438;-73
2022/07/05 08:39:22;;;;;;;1.70;1.03;;;19.20;95.40;;;;;;5092189;28;20570;-73
2022/07/05 08:41:49;;;;;;;6.50;1.40;;;18.90;95.30;;;;;;5072649;28;20300;-73
2022/07/05 08:44:21;;;;;;;1.93;1.10;;;18.60;95.20;;;;;;5074283;28;20208;-75
2022/07/05 08:46:52;;;;;;;1.50;1.00;;;18.40;95.20;;;;;;5094316;28;20408;-75
2022/07/05 08:49:22;;;;;;;6.40;1.20;;;18.40;96.30;;;;;;5077509;28;20416;-73
2022/07/05 08:51:49;;;;;;;2.07;1.10;;;18.30;95.10;;;;;;5073262;28;20462;-72
2022/07/05 08:54:16;;;;;;;1.20;0.90;;;18.40;95.10;;;;;;5087817;28;20512;-68
2022/07/05 08:56:43;;;;;;;3.27;1.10;;;18.50;90.90;;;;;;5093977;28;20403;-69
2022/07/05 08:59:09;;;;;;;2.20;1.00;;;18.60;92.70;;;;;;5093913;28;20392;-70
2022/07/05 09:01:36;;;;;;;3.33;0.93;;;18.60;90.50;;;;;;5092880;28;20461;-70
2022/07/05 09:04:05;;;;;;;1.70;1.00;;;18.80;95.20;;;;;;5090841;28;20688;-68
2022/07/05 09:06:34;;;;;;;1.30;0.80;;;19.30;95.40;;;;;;5080183;28;20487;-72
2022/07/05 09:09:00;;;;;;;7.10;1.50;;;19.50;91.00;;;;;;5073617;28;20408;-72
2022/07/05 09:11:38;;;;;;;1.10;1.00;;;19.50;86.60;;;;;;5072305;28;20420;-72
2022/07/05 09:14:06;;;;;;;1.20;0.90;;;19.50;85.90;;;;;;5072569;28;20424;-69
2022/07/05 09:16:33;;;;;;;2.93;0.90;;;19.50;82.60;;;;;;5073375;28;20478;-73
2022/07/05 09:19:06;;;;;;;1.20;0.90;;;19.50;83.80;;;;;;5073372;28;20491;-69
2022/07/05 09:21:32;;;;;;;1.70;0.93;;;19.40;81.70;;;;;;5078598;28;20444;-73
2022/07/05 09:24:06;;;;;;;1.73;1.00;;;19.30;77.30;;;;;;5091432;28;20463;-72
2022/07/05 09:26:36;;;;;;;5.07;0.97;;;19.10;74.30;;;;;;5093463;28;20206;-73
2022/07/05 09:29:08;;;;;;;1.13;0.90;;;19.00;78.40;;;;;;5093496;28;20400;-72
2022/07/05 09:31:42;;;;;;;1.43;0.90;;;18.90;73.20;;;;;;5093371;28;20399;-69
2022/07/05 09:34:13;;;;;;;2.57;1.13;;;19.00;77.50;;;;;;5091120;28;20797;-70
2022/07/05 09:36:51;;;;;;;2.83;1.20;;;19.30;83.50;;;;;;5093345;28;20483;-70
2022/07/05 09:39:37;;;;;;;1.13;1.03;;;19.70;79.50;;;;;;5092236;28;20793;-73
2022/07/05 09:42:13;;;;;;;2.37;1.20;;;20.10;75.50;;;;;;5092609;28;20407;-69
2022/07/05 09:44:43;;;;;;;1.13;0.70;;;20.70;71.80;;;;;;5092616;28;20489;-72
2022/07/05 09:47:11;;;;;;;2.70;0.80;;;21.00;61.60;;;;;;5093271;28;20417;-72
2022/07/05 09:49:40;;;;;;;1.00;0.70;;;21.00;60.20;;;;;;5092862;28;20951;-68
2022/07/05 09:52:06;;;;;;;6.90;1.13;;;21.30;49.90;;;;;;5092757;28;20430;-68
2022/07/05 09:54:32;;;;;;;2.57;1.40;;;21.50;46.10;;;;;;5088439;28;20793;-69
2022/07/05 09:56:58;;;;;;;1.40;0.90;;;21.70;35.00;;;;;;5073039;28;20393;-73
2022/07/05 09:59:24;;;;;;;2.83;0.70;;;22.20;34.30;;;;;;5072893;28;20903;-72
2022/07/05 10:01:50;;;;;;;1.10;0.70;;;22.10;25.90;;;;;;5072063;28;20162;-71
2022/07/05 10:04:16;;;;;;;1.10;0.83;;;21.90;21.10;;;;;;5071912;28;20202;-67
2022/07/05 10:06:42;;;;;;;3.20;0.70;;;21.40;17.20;;;;;;5072790;28;20758;-72
2022/07/05 10:09:10;;;;;;;2.87;0.90;;;20.80;20.10;;;;;;5072582;28;20222;-71
2022/07/05 10:11:40;;;;;;;2.60;0.90;;;20.50;18.70;;;;;;5085878;28;20506;-73
2022/07/05 10:14:11;;;;;;;1.97;1.00;;;20.20;19.60;;;;;;5070443;28;20454;-71
2022/07/05 10:16:37;;;;;;;7.70;1.40;;;19.90;22.70;;;;;;5092781;28;20419;-73
2022/07/05 10:19:08;;;;;;;2.63;1.20;;;19.50;29.40;;;;;;5090735;28;20464;-72
2022/07/05 10:21:34;;;;;;;2.53;1.00;;;19.40;34.10;;;;;;5092216;28;20170;-74
2022/07/05 10:24:01;;;;;;;2.83;1.00;;;19.30;40.90;;;;;;5091709;28;20474;-70
2022/07/05 10:26:32;;;;;;;2.90;1.00;;;19.20;34.20;;;;;;5079507;28;20416;-71
2022/07/05 10:28:58;;;;;;;5.17;1.30;;;19.20;34.00;;;;;;5091738;28;20506;-72
2022/07/05 10:31:25;;;;;;;1.20;1.00;;;19.30;41.30;;;;;;5083365;28;20428;-73
2022/07/05 10:33:51;;;;;;;1.50;1.10;;;19.50;46.30;;;;;;5087271;28;20450;-72
2022/07/05 10:36:17;;;;;;;1.20;0.80;;;19.60;50.30;;;;;;5091781;28;20404;-75
2022/07/05 10:38:45;;;;;;;1.33;0.90;;;19.70;44.00;;;;;;5085476;28;20743;-70
2022/07/05 10:41:18;;;;;;;2.53;1.03;;;19.60;46.00;;;;;;5072236;28;20181;-74
2022/07/05 10:43:44;;;;;;;0.90;0.70;;;19.80;33.10;;;;;;5071443;28;20451;-71
2022/07/05 10:46:09;;;;;;;1.40;0.73;;;19.80;26.80;;;;;;5088230;28;20426;-72
2022/07/05 10:48:35;;;;;;;1.83;0.87;;;19.90;26.60;;;;;;5092213;28;20749;-69
2022/07/05 10:51:14;;;;;;;1.40;1.30;;;20.30;26.20;;;;;;5090595;28;20224;-73
2022/07/05 10:53:40;;;;;;;6.77;2.67;;;21.00;29.80;;;;;;5090651;28;20182;-73
2022/07/05 10:56:05;;;;;;;1.63;0.70;;;22.00;32.50;;;;;;5085389;28;20623;-73
2022/07/05 10:58:36;;;;;;;1.27;1.10;;;22.60;37.60;;;;;;5091774;28;20208;-70
2022/07/05 11:01:20;;;;;;;1.00;0.70;;;22.60;25.70;;;;;;5091566;28;20633;-72
2022/07/05 11:04:00;;;;;;;1.63;0.80;;;21.80;14.60;;;;;;5092018;28;20512;-69
2022/07/05 11:06:33;;;;;;;1.27;0.80;;;21.20;12.10;;;;;;5096047;28;20818;-73
2022/07/05 11:08:59;;;;;;;1.63;0.60;;;21.20;13.90;;;;;;5095572;28;20474;-72
2022/07/05 11:11:32;;;;;;;1.10;0.80;;;21.50;15.70;;;;;;5095891;28;21083;-74
2022/07/05 11:14:02;;;;;;;1.40;0.80;;;22.30;17.30;;;;;;5085870;28;20229;-71
2022/07/05 11:16:31;;;;;;;1.60;0.90;;;23.20;14.70;;;;;;5075491;28;21272;-72
2022/07/05 11:19:08;;;;;;;1.03;0.93;;;23.90;12.40;;;;;;5079493;28;20432;-70
2022/07/05 11:21:35;;;;;;;1.37;0.70;;;24.70;11.20;;;;;;5092367;28;20415;-74
2022/07/05 11:24:21;;;;;;;1.67;0.73;;;23.70;1.00;;;;;;5089998;28;20509;-73
2022/07/05 11:26:53;;;;;;;1.10;0.87;;;22.20;1.00;;;;;;5075714;28;20405;-69
2022/07/05 11:29:44;;;;;;;2.00;1.00;;;22.40;1.00;;;;;;5090789;28;20407;-70
2022/07/05 11:32:11;;;;;;;1.10;0.80;;;22.90;1.00;;;;;;5073628;28;20432;-72
2022/07/05 11:34:37;;;;;;;1.20;0.70;;;22.80;1.00;;;;;;5089357;28;20473;-68
2022/07/05 11:37:26;;;;;;;7.00;0.90;;;22.30;1.00;;;;;;5095480;28;20396;-69
2022/07/05 11:40:15;;;;;;;2.40;1.00;;;22.00;1.00;;;;;;5078266;28;20440;-74
2022/07/05 11:42:48;;;;;;;1.50;1.20;;;21.20;4.30;;;;;;5070940;28;20458;-72
2022/07/05 11:45:14;;;;;;;2.10;1.20;;;20.80;7.90;;;;;;5079208;28;20546;-69
2022/07/05 11:47:41;;;;;;;1.37;0.90;;;21.50;13.70;;;;;;5081182;28;20913;-70
2022/07/05 11:50:08;;;;;;;4.60;2.57;;;22.60;12.90;;;;;;5087200;28;20416;-73
2022/07/05 11:52:36;;;;;;;5.43;1.00;;;23.40;11.50;;;;;;5076369;28;20431;-73
2022/07/05 11:55:03;;;;;;;1.83;0.87;;;24.50;17.70;;;;;;5091129;28;20435;-69
2022/07/05 11:57:29;;;;;;;1.30;0.80;;;25.30;18.30;;;;;;5091052;28;20420;-69
2022/07/05 11:59:55;;;;;;;2.90;1.00;;;25.30;5.80;;;;;;5073878;28;20401;-69
2022/07/05 12:02:21;;;;;;;3.00;0.70;;;25.30;5.10;;;;;;5073950;28;20204;-71
2022/07/05 12:04:51;;;;;;;1.50;0.90;;;25.50;5.40;;;;;;5080604;28;20190;-68
2022/07/05 12:07:37;;;;;;;4.27;0.80;;;25.70;1.00;;;;;;5090687;28;20519;-74
2022/07/05 12:12:48;;;;;;;4.13;1.23;;;25.40;1.00;;;;;;5073547;28;20494;-70
2022/07/05 12:15:15;;;;;;;4.10;1.03;;;25.90;1.00;;;;;;5089692;28;20960;-74
2022/07/05 12:17:46;;;;;;;3.07;1.10;;;26.40;1.00;;;;;;5086210;28;20516;-70
2022/07/05 12:20:13;;;;;;;4.53;2.27;;;26.30;1.00;;;;;;5088797;28;20430;-74
2022/07/05 12:22:42;;;;;;;2.80;0.90;;;25.90;1.00;;;;;;5089947;28;20458;-75
2022/07/05 12:25:11;;;;;;;1.33;0.70;;;25.90;1.00;;;;;;5086940;28;20481;-68
2022/07/05 12:27:38;;;;;;;3.30;0.93;;;26.10;1.00;;;;;;5091335;28;20427;-75
2022/07/05 12:30:06;;;;;;;2.30;0.70;;;26.40;1.00;;;;;;5090854;28;20439;-69
2022/07/05 12:32:32;;;;;;;1.30;0.70;;;26.80;1.00;;;;;;5091830;28;20431;-72
2022/07/05 12:34:59;;;;;;;1.37;0.77;;;26.50;1.00;;;;;;5092204;28;20964;-74
2022/07/05 12:37:26;;;;;;;2.13;0.70;;;26.60;1.00;;;;;;5092098;28;20435;-70
2022/07/05 12:40:09;;;;;;;4.93;0.80;;;24.90;1.00;;;;;;5093454;28;20424;-74
2022/07/05 12:42:39;;;;;;;2.33;0.83;;;23.80;1.00;;;;;;5090874;28;20491;-68
2022/07/05 12:45:14;;;;;;;1.73;0.97;;;23.60;1.00;;;;;;5073567;28;20443;-68
2022/07/05 12:47:54;;;;;;;1.10;0.90;;;23.70;1.00;;;;;;5074303;28;20461;-74
2022/07/05 12:50:28;;;;;;;1.73;1.23;;;24.20;1.00;;;;;;5091198;28;20419;-75
2022/07/05 12:58:55;;;;;;;1.43;0.80;;;24.60;1.00;;;;;;5091347;28;21005;-68
2022/07/05 13:01:47;;;;;;;2.00;0.70;;;25.00;1.00;;;;;;5092891;28;20921;-73
2022/07/05 13:04:15;;;;;;;1.97;0.70;;;25.40;1.00;;;;;;5092017;28;20505;-74